Terminal Aerodrome Forecast
Issued by NWS

Home | Current Version | Previous Version | Text Only | Print | Product List | Glossary On
Versions: 1 2 3 4 5 6 7 8 9 10 11 12 13 14 15 16 17 18 19 20 21 22
667
FTUS41 KPBZ 031734
TAFZZV
TAF
KZZV 031734Z 0318/0418 31004KT P6SM BKN060
     FM040100 31002KT P6SM OVC100
     FM040300 00000KT 5SM BR OVC050
     FM040900 00000KT 4SM BR OVC050
     FM041000 21002KT 5SM BR OVC100
     FM041200 20004KT P6SM BKN250
     FM041700 22007KT P6SM BKN100=

USA.gov is the U.S. government's official web portal to all federal, state and local government web resources and services.